sensor_id;sensor_type;location;lat;lon;timestamp;P1;durP1;ratioP1;P2;durP2;ratioP2
39566;SDS011;25241;41.978;14.664;2022-10-17T00:01:52;10.30;;;3.47;;
39566;SDS011;25241;41.978;14.664;2022-10-17T00:04:20;5.15;;;2.72;;
39566;SDS011;25241;41.978;14.664;2022-10-17T00:06:46;5.82;;;2.40;;
39566;SDS011;25241;41.978;14.664;2022-10-17T00:09:12;7.00;;;3.20;;
39566;SDS011;25241;41.978;14.664;2022-10-17T00:11:39;5.60;;;2.58;;
39566;SDS011;25241;41.978;14.664;2022-10-17T00:14:05;9.15;;;3.22;;
39566;SDS011;25241;41.978;14.664;2022-10-17T00:16:33;5.93;;;2.25;;
39566;SDS011;25241;41.978;14.664;2022-10-17T00:19:02;6.13;;;2.70;;
39566;SDS011;25241;41.978;14.664;2022-10-17T00:21:29;9.10;;;2.67;;
39566;SDS011;25241;41.978;14.664;2022-10-17T00:23:55;7.97;;;2.88;;
39566;SDS011;25241;41.978;14.664;2022-10-17T00:26:23;8.20;;;3.08;;
39566;SDS011;25241;41.978;14.664;2022-10-17T00:28:51;12.75;;;3.22;;
39566;SDS011;25241;41.978;14.664;2022-10-17T00:31:17;6.38;;;2.55;;
39566;SDS011;25241;41.978;14.664;2022-10-17T00:33:47;6.50;;;3.25;;
39566;SDS011;25241;41.978;14.664;2022-10-17T00:36:16;10.63;;;2.85;;
39566;SDS011;25241;41.978;14.664;2022-10-17T00:38:49;7.65;;;2.78;;
39566;SDS011;25241;41.978;14.664;2022-10-17T00:41:19;8.70;;;3.38;;
39566;SDS011;25241;41.978;14.664;2022-10-17T00:47:13;9.13;;;3.58;;
39566;SDS011;25241;41.978;14.664;2022-10-17T00:49:44;9.20;;;3.55;;
39566;SDS011;25241;41.978;14.664;2022-10-17T00:52:23;11.60;;;3.38;;
39566;SDS011;25241;41.978;14.664;2022-10-17T00:54:53;8.63;;;3.10;;
39566;SDS011;25241;41.978;14.664;2022-10-17T00:57:21;9.57;;;3.58;;
39566;SDS011;25241;41.978;14.664;2022-10-17T00:59:48;10.43;;;4.63;;
39566;SDS011;25241;41.978;14.664;2022-10-17T01:04:46;9.02;;;3.90;;
39566;SDS011;25241;41.978;14.664;2022-10-17T01:07:13;8.45;;;4.00;;
39566;SDS011;25241;41.978;14.664;2022-10-17T01:09:38;10.30;;;4.28;;
39566;SDS011;25241;41.978;14.664;2022-10-17T01:20:57;10.32;;;4.00;;
39566;SDS011;25241;41.978;14.664;2022-10-17T01:29:09;7.95;;;2.80;;
39566;SDS011;25241;41.978;14.664;2022-10-17T01:37:16;9.77;;;2.70;;
39566;SDS011;25241;41.978;14.664;2022-10-17T01:39:51;5.88;;;2.67;;
39566;SDS011;25241;41.978;14.664;2022-10-17T01:42:24;7.13;;;2.40;;
39566;SDS011;25241;41.978;14.664;2022-10-17T01:47:26;10.63;;;3.13;;
39566;SDS011;25241;41.978;14.664;2022-10-17T01:49:56;6.53;;;2.88;;
39566;SDS011;25241;41.978;14.664;2022-10-17T01:52:25;11.18;;;2.38;;
39566;SDS011;25241;41.978;14.664;2022-10-17T01:54:57;6.15;;;2.55;;
39566;SDS011;25241;41.978;14.664;2022-10-17T01:57:29;9.07;;;2.75;;
39566;SDS011;25241;41.978;14.664;2022-10-17T02:00:00;6.05;;;2.53;;
39566;SDS011;25241;41.978;14.664;2022-10-17T02:02:29;6.80;;;2.40;;
39566;SDS011;25241;41.978;14.664;2022-10-17T02:04:58;4.82;;;1.80;;
39566;SDS011;25241;41.978;14.664;2022-10-17T02:07:26;7.20;;;2.88;;
39566;SDS011;25241;41.978;14.664;2022-10-17T02:09:51;6.85;;;2.60;;
39566;SDS011;25241;41.978;14.664;2022-10-17T02:12:31;6.05;;;3.08;;
39566;SDS011;25241;41.978;14.664;2022-10-17T02:15:09;7.45;;;2.58;;
39566;SDS011;25241;41.978;14.664;2022-10-17T02:17:47;5.13;;;2.53;;
39566;SDS011;25241;41.978;14.664;2022-10-17T02:20:24;5.95;;;2.95;;
39566;SDS011;25241;41.978;14.664;2022-10-17T02:22:59;6.55;;;2.53;;
39566;SDS011;25241;41.978;14.664;2022-10-17T02:25:47;8.98;;;3.50;;
39566;SDS011;25241;41.978;14.664;2022-10-17T02:28:29;9.02;;;3.38;;
39566;SDS011;25241;41.978;14.664;2022-10-17T02:31:14;7.65;;;2.72;;
39566;SDS011;25241;41.978;14.664;2022-10-17T02:36:21;6.78;;;2.92;;
39566;SDS011;25241;41.978;14.664;2022-10-17T02:38:51;8.98;;;2.83;;
39566;SDS011;25241;41.978;14.664;2022-10-17T02:41:20;7.57;;;2.55;;
39566;SDS011;25241;41.978;14.664;2022-10-17T02:43:47;5.38;;;2.50;;
39566;SDS011;25241;41.978;14.664;2022-10-17T02:46:16;10.73;;;2.95;;
39566;SDS011;25241;41.978;14.664;2022-10-17T02:48:54;5.28;;;2.78;;
39566;SDS011;25241;41.978;14.664;2022-10-17T02:54:08;7.78;;;3.72;;
39566;SDS011;25241;41.978;14.664;2022-10-17T02:56:46;5.70;;;2.85;;
39566;SDS011;25241;41.978;14.664;2022-10-17T02:59:17;6.18;;;3.08;;
39566;SDS011;25241;41.978;14.664;2022-10-17T03:01:46;7.20;;;2.38;;
39566;SDS011;25241;41.978;14.664;2022-10-17T03:04:14;11.50;;;3.78;;
39566;SDS011;25241;41.978;14.664;2022-10-17T03:06:40;13.38;;;3.25;;
39566;SDS011;25241;41.978;14.664;2022-10-17T03:09:06;4.43;;;2.50;;
39566;SDS011;25241;41.978;14.664;2022-10-17T03:11:34;6.65;;;3.80;;
39566;SDS011;25241;41.978;14.664;2022-10-17T03:14:00;6.68;;;2.75;;
39566;SDS011;25241;41.978;14.664;2022-10-17T03:16:25;7.22;;;2.70;;
39566;SDS011;25241;41.978;14.664;2022-10-17T03:18:51;7.63;;;3.17;;
39566;SDS011;25241;41.978;14.664;2022-10-17T03:21:19;10.02;;;2.58;;
39566;SDS011;25241;41.978;14.664;2022-10-17T03:23:47;8.07;;;2.88;;
39566;SDS011;25241;41.978;14.664;2022-10-17T03:26:15;6.93;;;2.85;;
39566;SDS011;25241;41.978;14.664;2022-10-17T03:28:43;9.65;;;2.78;;
39566;SDS011;25241;41.978;14.664;2022-10-17T03:31:09;6.45;;;2.90;;
39566;SDS011;25241;41.978;14.664;2022-10-17T03:33:40;5.40;;;2.33;;
39566;SDS011;25241;41.978;14.664;2022-10-17T03:36:08;7.05;;;2.65;;
39566;SDS011;25241;41.978;14.664;2022-10-17T03:41:01;8.65;;;2.90;;
39566;SDS011;25241;41.978;14.664;2022-10-17T03:43:28;8.18;;;2.58;;
39566;SDS011;25241;41.978;14.664;2022-10-17T03:45:56;4.28;;;2.25;;
39566;SDS011;25241;41.978;14.664;2022-10-17T03:48:23;5.15;;;2.53;;
39566;SDS011;25241;41.978;14.664;2022-10-17T03:50:51;6.30;;;2.25;;
39566;SDS011;25241;41.978;14.664;2022-10-17T03:53:19;6.38;;;2.42;;
39566;SDS011;25241;41.978;14.664;2022-10-17T03:55:47;6.30;;;2.15;;
39566;SDS011;25241;41.978;14.664;2022-10-17T03:58:15;8.75;;;3.28;;
39566;SDS011;25241;41.978;14.664;2022-10-17T04:00:43;5.25;;;2.88;;
39566;SDS011;25241;41.978;14.664;2022-10-17T04:03:08;11.75;;;2.92;;
39566;SDS011;25241;41.978;14.664;2022-10-17T04:05:36;6.13;;;2.38;;
39566;SDS011;25241;41.978;14.664;2022-10-17T04:08:02;4.90;;;2.47;;
39566;SDS011;25241;41.978;14.664;2022-10-17T04:10:27;13.77;;;2.90;;
39566;SDS011;25241;41.978;14.664;2022-10-17T04:12:53;5.28;;;2.25;;
39566;SDS011;25241;41.978;14.664;2022-10-17T04:15:19;6.63;;;2.85;;
39566;SDS011;25241;41.978;14.664;2022-10-17T04:17:45;8.25;;;2.25;;
39566;SDS011;25241;41.978;14.664;2022-10-17T04:20:10;8.65;;;2.97;;
39566;SDS011;25241;41.978;14.664;2022-10-17T04:22:36;6.53;;;2.58;;
39566;SDS011;25241;41.978;14.664;2022-10-17T04:25:02;10.50;;;3.03;;
39566;SDS011;25241;41.978;14.664;2022-10-17T04:27:30;5.90;;;2.40;;
39566;SDS011;25241;41.978;14.664;2022-10-17T04:29:56;11.50;;;2.42;;
39566;SDS011;25241;41.978;14.664;2022-10-17T04:32:22;4.93;;;2.17;;
39566;SDS011;25241;41.978;14.664;2022-10-17T04:34:48;9.15;;;2.55;;
39566;SDS011;25241;41.978;14.664;2022-10-17T04:37:16;3.33;;;1.77;;
39566;SDS011;25241;41.978;14.664;2022-10-17T04:39:42;6.03;;;2.25;;
39566;SDS011;25241;41.978;14.664;2022-10-17T04:42:07;6.93;;;2.50;;
39566;SDS011;25241;41.978;14.664;2022-10-17T04:44:33;8.48;;;2.78;;
39566;SDS011;25241;41.978;14.664;2022-10-17T04:46:59;6.13;;;2.85;;
39566;SDS011;25241;41.978;14.664;2022-10-17T04:49:27;7.55;;;2.78;;
39566;SDS011;25241;41.978;14.664;2022-10-17T04:51:56;9.18;;;2.38;;
39566;SDS011;25241;41.978;14.664;2022-10-17T04:54:21;5.10;;;2.40;;
39566;SDS011;25241;41.978;14.664;2022-10-17T04:56:47;6.10;;;2.80;;
39566;SDS011;25241;41.978;14.664;2022-10-17T04:59:13;7.63;;;2.45;;
39566;SDS011;25241;41.978;14.664;2022-10-17T05:01:41;9.70;;;2.92;;
39566;SDS011;25241;41.978;14.664;2022-10-17T05:04:06;5.57;;;2.40;;
39566;SDS011;25241;41.978;14.664;2022-10-17T05:06:32;5.85;;;2.33;;
39566;SDS011;25241;41.978;14.664;2022-10-17T05:09:01;9.43;;;2.70;;
39566;SDS011;25241;41.978;14.664;2022-10-17T05:11:27;7.35;;;2.13;;
39566;SDS011;25241;41.978;14.664;2022-10-17T05:13:58;7.43;;;2.15;;
39566;SDS011;25241;41.978;14.664;2022-10-17T05:16:27;7.13;;;3.53;;
39566;SDS011;25241;41.978;14.664;2022-10-17T05:18:55;5.22;;;2.83;;
39566;SDS011;25241;41.978;14.664;2022-10-17T05:21:22;6.47;;;2.67;;
39566;SDS011;25241;41.978;14.664;2022-10-17T05:23:51;5.07;;;2.08;;
39566;SDS011;25241;41.978;14.664;2022-10-17T05:26:17;4.80;;;2.15;;
39566;SDS011;25241;41.978;14.664;2022-10-17T05:28:45;5.05;;;2.45;;
39566;SDS011;25241;41.978;14.664;2022-10-17T05:31:11;6.75;;;2.63;;
39566;SDS011;25241;41.978;14.664;2022-10-17T05:33:37;5.28;;;2.45;;
39566;SDS011;25241;41.978;14.664;2022-10-17T05:36:05;13.38;;;8.85;;
39566;SDS011;25241;41.978;14.664;2022-10-17T05:38:31;8.95;;;2.60;;
39566;SDS011;25241;41.978;14.664;2022-10-17T05:41:01;5.72;;;2.60;;
39566;SDS011;25241;41.978;14.664;2022-10-17T05:43:28;6.68;;;2.75;;
39566;SDS011;25241;41.978;14.664;2022-10-17T05:45:54;13.07;;;3.03;;
39566;SDS011;25241;41.978;14.664;2022-10-17T05:48:20;5.07;;;2.20;;
39566;SDS011;25241;41.978;14.664;2022-10-17T05:50:48;4.60;;;2.25;;
39566;SDS011;25241;41.978;14.664;2022-10-17T05:53:14;5.18;;;2.35;;
39566;SDS011;25241;41.978;14.664;2022-10-17T05:55:41;3.90;;;1.88;;
39566;SDS011;25241;41.978;14.664;2022-10-17T05:58:06;6.25;;;2.63;;
39566;SDS011;25241;41.978;14.664;2022-10-17T06:00:32;5.72;;;2.55;;
39566;SDS011;25241;41.978;14.664;2022-10-17T06:02:58;3.67;;;1.65;;
39566;SDS011;25241;41.978;14.664;2022-10-17T06:05:26;6.00;;;2.10;;
39566;SDS011;25241;41.978;14.664;2022-10-17T06:07:54;2.83;;;1.40;;
39566;SDS011;25241;41.978;14.664;2022-10-17T06:12:46;5.82;;;1.90;;
39566;SDS011;25241;41.978;14.664;2022-10-17T06:15:11;7.63;;;1.92;;
39566;SDS011;25241;41.978;14.664;2022-10-17T06:20:03;5.43;;;2.08;;
39566;SDS011;25241;41.978;14.664;2022-10-17T06:24:54;5.75;;;1.98;;
39566;SDS011;25241;41.978;14.664;2022-10-17T06:27:22;5.18;;;2.08;;
39566;SDS011;25241;41.978;14.664;2022-10-17T06:29:50;4.60;;;1.50;;
39566;SDS011;25241;41.978;14.664;2022-10-17T06:46:56;4.30;;;1.88;;
39566;SDS011;25241;41.978;14.664;2022-10-17T06:52:44;4.50;;;2.30;;
39566;SDS011;25241;41.978;14.664;2022-10-17T06:57:38;6.43;;;1.37;;
39566;SDS011;25241;41.978;14.664;2022-10-17T07:00:04;2.47;;;1.33;;
39566;SDS011;25241;41.978;14.664;2022-10-17T07:02:30;4.97;;;1.77;;
39566;SDS011;25241;41.978;14.664;2022-10-17T07:14:37;2.85;;;1.40;;
39566;SDS011;25241;41.978;14.664;2022-10-17T07:17:03;2.65;;;2.03;;
39566;SDS011;25241;41.978;14.664;2022-10-17T07:19:31;4.28;;;1.73;;
39566;SDS011;25241;41.978;14.664;2022-10-17T07:21:59;2.83;;;1.30;;
39566;SDS011;25241;41.978;14.664;2022-10-17T07:24:25;2.10;;;1.42;;
39566;SDS011;25241;41.978;14.664;2022-10-17T07:26:50;2.67;;;1.60;;
39566;SDS011;25241;41.978;14.664;2022-10-17T07:29:16;4.25;;;1.50;;
39566;SDS011;25241;41.978;14.664;2022-10-17T07:31:41;4.63;;;1.45;;
39566;SDS011;25241;41.978;14.664;2022-10-17T07:34:11;4.95;;;1.98;;
39566;SDS011;25241;41.978;14.664;2022-10-17T07:36:39;3.45;;;1.48;;
39566;SDS011;25241;41.978;14.664;2022-10-17T07:39:05;5.15;;;1.58;;
39566;SDS011;25241;41.978;14.664;2022-10-17T07:41:31;7.90;;;1.40;;
39566;SDS011;25241;41.978;14.664;2022-10-17T07:43:59;3.42;;;1.77;;
39566;SDS011;25241;41.978;14.664;2022-10-17T07:46:26;3.95;;;1.58;;
39566;SDS011;25241;41.978;14.664;2022-10-17T07:48:54;5.38;;;2.10;;
39566;SDS011;25241;41.978;14.664;2022-10-17T07:51:22;3.65;;;1.40;;
39566;SDS011;25241;41.978;14.664;2022-10-17T07:53:51;3.47;;;1.45;;
39566;SDS011;25241;41.978;14.664;2022-10-17T07:56:19;4.68;;;1.45;;
39566;SDS011;25241;41.978;14.664;2022-10-17T07:58:48;7.35;;;1.85;;
39566;SDS011;25241;41.978;14.664;2022-10-17T08:01:14;3.38;;;1.65;;
39566;SDS011;25241;41.978;14.664;2022-10-17T08:03:47;4.93;;;1.50;;
39566;SDS011;25241;41.978;14.664;2022-10-17T08:06:15;4.88;;;1.55;;
39566;SDS011;25241;41.978;14.664;2022-10-17T08:08:41;3.10;;;1.70;;
39566;SDS011;25241;41.978;14.664;2022-10-17T08:11:09;2.55;;;1.20;;
39566;SDS011;25241;41.978;14.664;2022-10-17T08:13:36;5.25;;;1.45;;
39566;SDS011;25241;41.978;14.664;2022-10-17T08:16:03;5.03;;;2.13;;
39566;SDS011;25241;41.978;14.664;2022-10-17T08:18:31;5.78;;;3.38;;
39566;SDS011;25241;41.978;14.664;2022-10-17T08:21:00;5.88;;;2.08;;
39566;SDS011;25241;41.978;14.664;2022-10-17T08:23:27;22.83;;;8.55;;
39566;SDS011;25241;41.978;14.664;2022-10-17T08:25:53;18.13;;;5.65;;
39566;SDS011;25241;41.978;14.664;2022-10-17T08:28:21;10.27;;;3.63;;
39566;SDS011;25241;41.978;14.664;2022-10-17T08:30:49;15.25;;;6.30;;
39566;SDS011;25241;41.978;14.664;2022-10-17T08:33:15;17.33;;;4.75;;
39566;SDS011;25241;41.978;14.664;2022-10-17T08:35:43;9.30;;;4.05;;
39566;SDS011;25241;41.978;14.664;2022-10-17T08:38:11;9.02;;;3.22;;
39566;SDS011;25241;41.978;14.664;2022-10-17T08:40:36;5.85;;;2.47;;
39566;SDS011;25241;41.978;14.664;2022-10-17T08:45:50;12.55;;;3.60;;
39566;SDS011;25241;41.978;14.664;2022-10-17T08:48:18;4.78;;;2.53;;
39566;SDS011;25241;41.978;14.664;2022-10-17T08:50:54;5.97;;;2.03;;
39566;SDS011;25241;41.978;14.664;2022-10-17T10:30:59;3.22;;;1.48;;
39566;SDS011;25241;41.978;14.664;2022-10-17T10:33:31;5.20;;;1.60;;
39566;SDS011;25241;41.978;14.664;2022-10-17T10:36:01;3.03;;;1.63;;
39566;SDS011;25241;41.978;14.664;2022-10-17T10:38:32;7.55;;;1.88;;
39566;SDS011;25241;41.978;14.664;2022-10-17T10:41:02;2.33;;;1.23;;
39566;SDS011;25241;41.978;14.664;2022-10-17T10:45:58;2.83;;;1.30;;
39566;SDS011;25241;41.978;14.664;2022-10-17T10:48:27;5.25;;;1.55;;
39566;SDS011;25241;41.978;14.664;2022-10-17T10:51:00;3.80;;;1.60;;
39566;SDS011;25241;41.978;14.664;2022-10-17T10:53:37;3.13;;;1.55;;
39566;SDS011;25241;41.978;14.664;2022-10-17T10:56:08;2.25;;;1.55;;
39566;SDS011;25241;41.978;14.664;2022-10-17T11:03:52;4.53;;;1.70;;
39566;SDS011;25241;41.978;14.664;2022-10-17T11:06:37;4.75;;;1.70;;
39566;SDS011;25241;41.978;14.664;2022-10-17T11:11:52;5.07;;;1.83;;
39566;SDS011;25241;41.978;14.664;2022-10-17T11:14:23;3.65;;;2.28;;
39566;SDS011;25241;41.978;14.664;2022-10-17T11:20:14;3.20;;;1.70;;
39566;SDS011;25241;41.978;14.664;2022-10-17T11:23:08;3.60;;;1.65;;
39566;SDS011;25241;41.978;14.664;2022-10-17T11:41:19;6.35;;;1.80;;
39566;SDS011;25241;41.978;14.664;2022-10-17T11:47:06;2.92;;;1.20;;
39566;SDS011;25241;41.978;14.664;2022-10-17T11:49:46;5.05;;;1.60;;
39566;SDS011;25241;41.978;14.664;2022-10-17T11:52:31;5.35;;;1.90;;
39566;SDS011;25241;41.978;14.664;2022-10-17T11:55:20;2.67;;;1.65;;
39566;SDS011;25241;41.978;14.664;2022-10-17T12:33:56;10.18;;;2.28;;
39566;SDS011;25241;41.978;14.664;2022-10-17T12:49:22;7.15;;;2.42;;
39566;SDS011;25241;41.978;14.664;2022-10-17T12:54:46;8.90;;;3.13;;
39566;SDS011;25241;41.978;14.664;2022-10-17T14:26:03;6.93;;;2.40;;
39566;SDS011;25241;41.978;14.664;2022-10-17T14:28:32;7.50;;;3.22;;
39566;SDS011;25241;41.978;14.664;2022-10-17T14:33:43;8.45;;;3.10;;
39566;SDS011;25241;41.978;14.664;2022-10-17T14:36:10;8.10;;;3.28;;
39566;SDS011;25241;41.978;14.664;2022-10-17T14:38:38;8.48;;;2.92;;
39566;SDS011;25241;41.978;14.664;2022-10-17T14:43:40;9.48;;;3.75;;
39566;SDS011;25241;41.978;14.664;2022-10-17T14:46:10;9.73;;;4.30;;
39566;SDS011;25241;41.978;14.664;2022-10-17T14:48:43;10.95;;;4.18;;
39566;SDS011;25241;41.978;14.664;2022-10-17T14:53:38;11.85;;;3.53;;
39566;SDS011;25241;41.978;14.664;2022-10-17T14:56:20;11.45;;;3.90;;
39566;SDS011;25241;41.978;14.664;2022-10-17T14:58:47;6.88;;;3.15;;
39566;SDS011;25241;41.978;14.664;2022-10-17T15:01:15;11.20;;;4.22;;
39566;SDS011;25241;41.978;14.664;2022-10-17T15:03:41;14.65;;;4.35;;
39566;SDS011;25241;41.978;14.664;2022-10-17T15:06:20;11.30;;;3.80;;
39566;SDS011;25241;41.978;14.664;2022-10-17T15:08:48;8.82;;;3.58;;
39566;SDS011;25241;41.978;14.664;2022-10-17T15:11:14;16.58;;;4.43;;
39566;SDS011;25241;41.978;14.664;2022-10-17T15:13:40;8.30;;;3.55;;
39566;SDS011;25241;41.978;14.664;2022-10-17T15:16:11;10.55;;;3.70;;
39566;SDS011;25241;41.978;14.664;2022-10-17T15:18:42;13.60;;;5.05;;
39566;SDS011;25241;41.978;14.664;2022-10-17T15:21:11;11.50;;;3.95;;
39566;SDS011;25241;41.978;14.664;2022-10-17T15:23:40;8.15;;;3.58;;
39566;SDS011;25241;41.978;14.664;2022-10-17T15:26:27;13.55;;;3.60;;
39566;SDS011;25241;41.978;14.664;2022-10-17T15:28:55;8.35;;;4.15;;
39566;SDS011;25241;41.978;14.664;2022-10-17T15:31:23;7.97;;;4.22;;
39566;SDS011;25241;41.978;14.664;2022-10-17T15:33:52;10.10;;;4.05;;
39566;SDS011;25241;41.978;14.664;2022-10-17T15:36:29;10.32;;;3.58;;
39566;SDS011;25241;41.978;14.664;2022-10-17T15:39:01;9.60;;;3.90;;
39566;SDS011;25241;41.978;14.664;2022-10-17T15:41:29;13.00;;;5.32;;
39566;SDS011;25241;41.978;14.664;2022-10-17T15:43:55;18.15;;;6.50;;
39566;SDS011;25241;41.978;14.664;2022-10-17T15:46:26;19.83;;;6.72;;
39566;SDS011;25241;41.978;14.664;2022-10-17T15:48:56;17.08;;;5.35;;
39566;SDS011;25241;41.978;14.664;2022-10-17T15:51:28;11.07;;;3.95;;
39566;SDS011;25241;41.978;14.664;2022-10-17T15:53:56;10.88;;;4.20;;
39566;SDS011;25241;41.978;14.664;2022-10-17T15:56:26;7.32;;;3.45;;
39566;SDS011;25241;41.978;14.664;2022-10-17T15:58:54;12.00;;;4.57;;
39566;SDS011;25241;41.978;14.664;2022-10-17T16:01:23;10.95;;;4.05;;
39566;SDS011;25241;41.978;14.664;2022-10-17T16:03:55;10.85;;;4.38;;
39566;SDS011;25241;41.978;14.664;2022-10-17T16:06:21;12.45;;;5.07;;
39566;SDS011;25241;41.978;14.664;2022-10-17T16:08:50;13.93;;;4.88;;
39566;SDS011;25241;41.978;14.664;2022-10-17T16:13:55;11.85;;;4.45;;
39566;SDS011;25241;41.978;14.664;2022-10-17T16:16:22;15.20;;;5.38;;
39566;SDS011;25241;41.978;14.664;2022-10-17T16:18:50;17.73;;;6.53;;
39566;SDS011;25241;41.978;14.664;2022-10-17T16:21:18;15.70;;;6.18;;
39566;SDS011;25241;41.978;14.664;2022-10-17T16:23:47;22.00;;;7.93;;
39566;SDS011;25241;41.978;14.664;2022-10-17T16:26:15;17.30;;;7.55;;
39566;SDS011;25241;41.978;14.664;2022-10-17T16:28:41;11.00;;;5.40;;
39566;SDS011;25241;41.978;14.664;2022-10-17T16:31:18;15.05;;;6.43;;
39566;SDS011;25241;41.978;14.664;2022-10-17T16:33:44;19.50;;;6.22;;
39566;SDS011;25241;41.978;14.664;2022-10-17T16:36:10;13.40;;;5.38;;
39566;SDS011;25241;41.978;14.664;2022-10-17T16:38:39;10.93;;;4.88;;
39566;SDS011;25241;41.978;14.664;2022-10-17T16:41:07;10.63;;;4.30;;
39566;SDS011;25241;41.978;14.664;2022-10-17T16:43:44;9.10;;;3.22;;
39566;SDS011;25241;41.978;14.664;2022-10-17T16:46:10;12.45;;;3.95;;
39566;SDS011;25241;41.978;14.664;2022-10-17T16:48:36;8.43;;;3.42;;
39566;SDS011;25241;41.978;14.664;2022-10-17T16:51:01;10.52;;;3.33;;
39566;SDS011;25241;41.978;14.664;2022-10-17T16:53:30;8.07;;;3.17;;
39566;SDS011;25241;41.978;14.664;2022-10-17T16:56:02;11.32;;;3.22;;
39566;SDS011;25241;41.978;14.664;2022-10-17T16:58:28;11.10;;;3.17;;
39566;SDS011;25241;41.978;14.664;2022-10-17T17:00:59;10.00;;;3.17;;
39566;SDS011;25241;41.978;14.664;2022-10-17T17:03:28;10.15;;;3.20;;
39566;SDS011;25241;41.978;14.664;2022-10-17T17:05:54;10.30;;;4.55;;
39566;SDS011;25241;41.978;14.664;2022-10-17T17:08:22;10.50;;;3.72;;
39566;SDS011;25241;41.978;14.664;2022-10-17T17:10:48;10.05;;;3.60;;
39566;SDS011;25241;41.978;14.664;2022-10-17T17:13:15;8.48;;;3.28;;
39566;SDS011;25241;41.978;14.664;2022-10-17T17:15:41;15.88;;;4.10;;
39566;SDS011;25241;41.978;14.664;2022-10-17T17:18:09;8.98;;;3.22;;
39566;SDS011;25241;41.978;14.664;2022-10-17T17:20:38;11.60;;;4.70;;
39566;SDS011;25241;41.978;14.664;2022-10-17T17:23:05;8.25;;;3.72;;
39566;SDS011;25241;41.978;14.664;2022-10-17T17:25:32;11.02;;;4.68;;
39566;SDS011;25241;41.978;14.664;2022-10-17T17:28:00;15.45;;;5.05;;
39566;SDS011;25241;41.978;14.664;2022-10-17T17:30:27;11.13;;;4.22;;
39566;SDS011;25241;41.978;14.664;2022-10-17T17:32:54;10.73;;;4.55;;
39566;SDS011;25241;41.978;14.664;2022-10-17T17:35:19;5.47;;;2.60;;
39566;SDS011;25241;41.978;14.664;2022-10-17T17:37:45;11.88;;;2.67;;
39566;SDS011;25241;41.978;14.664;2022-10-17T17:40:11;5.25;;;2.17;;
39566;SDS011;25241;41.978;14.664;2022-10-17T17:42:37;6.13;;;2.47;;
39566;SDS011;25241;41.978;14.664;2022-10-17T17:45:03;8.95;;;2.97;;
39566;SDS011;25241;41.978;14.664;2022-10-17T17:47:29;5.90;;;2.53;;
39566;SDS011;25241;41.978;14.664;2022-10-17T17:49:57;7.10;;;2.40;;
39566;SDS011;25241;41.978;14.664;2022-10-17T17:52:23;7.05;;;3.03;;
39566;SDS011;25241;41.978;14.664;2022-10-17T17:54:48;7.70;;;3.70;;
39566;SDS011;25241;41.978;14.664;2022-10-17T17:57:14;7.85;;;2.45;;
39566;SDS011;25241;41.978;14.664;2022-10-17T17:59:42;4.70;;;2.15;;
39566;SDS011;25241;41.978;14.664;2022-10-17T18:02:08;11.02;;;2.88;;
39566;SDS011;25241;41.978;14.664;2022-10-17T18:04:35;5.72;;;2.50;;
39566;SDS011;25241;41.978;14.664;2022-10-17T18:07:00;5.65;;;2.20;;
39566;SDS011;25241;41.978;14.664;2022-10-17T18:09:26;6.22;;;2.35;;
39566;SDS011;25241;41.978;14.664;2022-10-17T18:11:51;11.73;;;2.90;;
39566;SDS011;25241;41.978;14.664;2022-10-17T18:14:19;13.80;;;2.88;;
39566;SDS011;25241;41.978;14.664;2022-10-17T18:16:48;8.25;;;3.00;;
39566;SDS011;25241;41.978;14.664;2022-10-17T18:19:16;10.07;;;3.63;;
39566;SDS011;25241;41.978;14.664;2022-10-17T18:21:42;7.47;;;3.63;;
39566;SDS011;25241;41.978;14.664;2022-10-17T18:24:10;14.30;;;4.18;;
39566;SDS011;25241;41.978;14.664;2022-10-17T18:26:38;10.35;;;4.38;;
39566;SDS011;25241;41.978;14.664;2022-10-17T18:29:07;9.85;;;3.78;;
39566;SDS011;25241;41.978;14.664;2022-10-17T18:31:33;9.85;;;4.00;;
39566;SDS011;25241;41.978;14.664;2022-10-17T18:34:02;11.48;;;4.45;;
39566;SDS011;25241;41.978;14.664;2022-10-17T18:36:30;10.43;;;4.47;;
39566;SDS011;25241;41.978;14.664;2022-10-17T18:38:57;8.90;;;3.97;;
39566;SDS011;25241;41.978;14.664;2022-10-17T18:41:24;11.40;;;3.75;;
39566;SDS011;25241;41.978;14.664;2022-10-17T18:43:51;10.38;;;3.50;;
39566;SDS011;25241;41.978;14.664;2022-10-17T18:46:20;6.82;;;3.60;;
39566;SDS011;25241;41.978;14.664;2022-10-17T18:48:47;11.55;;;4.25;;
39566;SDS011;25241;41.978;14.664;2022-10-17T18:51:17;5.47;;;2.38;;
39566;SDS011;25241;41.978;14.664;2022-10-17T18:53:45;8.00;;;3.15;;
39566;SDS011;25241;41.978;14.664;2022-10-17T18:56:13;9.55;;;3.35;;
39566;SDS011;25241;41.978;14.664;2022-10-17T18:58:39;8.30;;;3.35;;
39566;SDS011;25241;41.978;14.664;2022-10-17T19:01:16;13.10;;;3.90;;
39566;SDS011;25241;41.978;14.664;2022-10-17T19:03:45;10.82;;;3.75;;
39566;SDS011;25241;41.978;14.664;2022-10-17T19:06:13;8.80;;;3.13;;
39566;SDS011;25241;41.978;14.664;2022-10-17T19:08:41;9.93;;;3.15;;
39566;SDS011;25241;41.978;14.664;2022-10-17T19:11:40;11.38;;;3.17;;
39566;SDS011;25241;41.978;14.664;2022-10-17T19:14:01;8.63;;;3.70;;
39566;SDS011;25241;41.978;14.664;2022-10-17T19:16:31;6.90;;;2.70;;
39566;SDS011;25241;41.978;14.664;2022-10-17T19:19:03;7.13;;;3.22;;
39566;SDS011;25241;41.978;14.664;2022-10-17T19:21:32;11.55;;;3.40;;
39566;SDS011;25241;41.978;14.664;2022-10-17T19:23:59;6.18;;;2.90;;
39566;SDS011;25241;41.978;14.664;2022-10-17T19:26:27;4.72;;;2.70;;
39566;SDS011;25241;41.978;14.664;2022-10-17T19:28:56;9.15;;;3.05;;
39566;SDS011;25241;41.978;14.664;2022-10-17T19:31:27;11.45;;;3.38;;
39566;SDS011;25241;41.978;14.664;2022-10-17T19:33:54;7.80;;;3.42;;
39566;SDS011;25241;41.978;14.664;2022-10-17T19:36:23;6.30;;;2.47;;
39566;SDS011;25241;41.978;14.664;2022-10-17T19:38:53;7.18;;;3.05;;
39566;SDS011;25241;41.978;14.664;2022-10-17T19:41:19;6.38;;;2.70;;
39566;SDS011;25241;41.978;14.664;2022-10-17T19:43:49;9.65;;;3.72;;
39566;SDS011;25241;41.978;14.664;2022-10-17T19:46:20;6.25;;;3.35;;
39566;SDS011;25241;41.978;14.664;2022-10-17T19:48:52;7.15;;;2.58;;
39566;SDS011;25241;41.978;14.664;2022-10-17T19:51:19;7.57;;;3.22;;
39566;SDS011;25241;41.978;14.664;2022-10-17T19:53:48;8.07;;;2.53;;
39566;SDS011;25241;41.978;14.664;2022-10-17T19:56:17;8.10;;;2.80;;
39566;SDS011;25241;41.978;14.664;2022-10-17T19:58:44;6.72;;;2.72;;
39566;SDS011;25241;41.978;14.664;2022-10-17T20:01:13;10.27;;;3.45;;
39566;SDS011;25241;41.978;14.664;2022-10-17T20:03:40;6.70;;;2.95;;
39566;SDS011;25241;41.978;14.664;2022-10-17T20:06:08;9.45;;;3.63;;
39566;SDS011;25241;41.978;14.664;2022-10-17T20:08:36;6.43;;;2.67;;
39566;SDS011;25241;41.978;14.664;2022-10-17T20:11:05;6.43;;;2.50;;
39566;SDS011;25241;41.978;14.664;2022-10-17T20:13:54;9.20;;;2.90;;
39566;SDS011;25241;41.978;14.664;2022-10-17T20:16:22;8.02;;;2.40;;
39566;SDS011;25241;41.978;14.664;2022-10-17T20:18:51;10.98;;;2.58;;
39566;SDS011;25241;41.978;14.664;2022-10-17T20:21:20;7.15;;;2.30;;
39566;SDS011;25241;41.978;14.664;2022-10-17T20:23:51;4.38;;;2.30;;
39566;SDS011;25241;41.978;14.664;2022-10-17T20:26:18;4.45;;;2.30;;
39566;SDS011;25241;41.978;14.664;2022-10-17T20:28:48;7.38;;;2.22;;
39566;SDS011;25241;41.978;14.664;2022-10-17T20:31:14;4.70;;;2.07;;
39566;SDS011;25241;41.978;14.664;2022-10-17T20:33:42;5.93;;;2.47;;
39566;SDS011;25241;41.978;14.664;2022-10-17T20:36:11;8.10;;;2.80;;
39566;SDS011;25241;41.978;14.664;2022-10-17T20:38:38;4.88;;;2.35;;